createdAt,value
2022-10-06T00:03:57.631Z,1.60
2022-10-06T00:09:01.920Z,1.60
2022-10-06T00:14:04.809Z,1.50
2022-10-06T00:19:07.481Z,1.50
2022-10-06T00:24:12.204Z,1.15
2022-10-06T00:29:17.339Z,0.85
2022-10-06T00:34:20.370Z,1.30
2022-10-06T00:39:25.730Z,1.20
2022-10-06T00:44:28.514Z,1.25
2022-10-06T00:49:37.897Z,1.20
2022-10-06T00:54:42.360Z,1.30
2022-10-06T00:59:45.224Z,1.20
2022-10-06T01:04:50.094Z,1.20
2022-10-06T01:09:54.713Z,1.30
2022-10-06T01:15:00.528Z,1.40
2022-10-06T01:20:09.041Z,1.33
2022-10-06T01:25:14.787Z,1.40
2022-10-06T01:30:20.397Z,0.75
2022-10-06T01:35:23.588Z,1.13
2022-10-06T01:40:29.591Z,1.43
2022-10-06T01:45:33.278Z,0.95
2022-10-06T01:50:36.558Z,1.10
2022-10-06T01:55:41.269Z,1.50
2022-10-06T02:00:44.380Z,1.40
2022-10-06T02:05:47.724Z,1.43
2022-10-06T02:10:52.234Z,1.60
2022-10-06T02:15:56.923Z,1.45
2022-10-06T02:21:00.905Z,1.23
2022-10-06T02:31:09.968Z,1.20
2022-10-06T02:36:14.803Z,1.25
2022-10-06T02:41:18.489Z,1.35
2022-10-06T02:46:24.391Z,1.50
2022-10-06T02:51:28.065Z,1.58
2022-10-06T02:56:31.516Z,1.48
2022-10-06T03:01:36.738Z,1.77
2022-10-06T03:06:40.568Z,1.70
2022-10-06T03:11:44.130Z,1.98
2022-10-06T03:21:53.479Z,1.70
2022-10-06T03:26:57.104Z,1.38
2022-10-06T03:32:00.914Z,1.50
2022-10-06T03:37:06.276Z,1.90
2022-10-06T03:42:10.132Z,1.80
2022-10-06T03:47:16.949Z,1.80
2022-10-06T03:52:25.910Z,1.70
2022-10-06T03:57:29.771Z,1.98
2022-10-06T04:02:33.235Z,1.65
2022-10-06T04:07:38.265Z,2.08
2022-10-06T04:12:41.850Z,1.92
2022-10-06T04:17:45.160Z,1.83
2022-10-06T04:22:50.230Z,1.90
2022-10-06T04:27:53.749Z,1.98
2022-10-06T04:32:57.179Z,1.77
2022-10-06T04:38:01.981Z,1.58
2022-10-06T04:43:05.412Z,1.73
2022-10-06T04:48:10.289Z,1.60
2022-10-06T04:53:15.223Z,1.48
2022-10-06T04:58:18.627Z,1.27
2022-10-06T05:03:22.137Z,0.90
2022-10-06T05:08:27.285Z,1.60
2022-10-06T05:13:31.751Z,1.50
2022-10-06T05:23:40.407Z,1.77
2022-10-06T05:28:44.104Z,1.60
2022-10-06T05:33:51.027Z,1.60
2022-10-06T05:38:56.641Z,1.60
2022-10-06T05:44:00.315Z,1.60
2022-10-06T05:49:04.433Z,1.75
2022-10-06T05:54:09.383Z,1.90
2022-10-06T05:59:12.815Z,1.50
2022-10-06T06:04:15.954Z,1.73
2022-10-06T06:09:22.392Z,2.10
2022-10-06T06:14:46.101Z,1.77
2022-10-06T06:19:54.825Z,2.00
2022-10-06T06:24:59.485Z,2.80
2022-10-06T06:30:06.391Z,1.98
2022-10-06T06:35:10.846Z,2.25
2022-10-06T06:40:15.628Z,1.80
2022-10-06T06:45:22.873Z,2.55
2022-10-06T06:50:26.006Z,1.80
2022-10-06T06:55:30.411Z,2.10
2022-10-06T07:00:36.167Z,1.90
2022-10-06T07:05:40.029Z,1.77
2022-10-06T07:10:45.216Z,1.77
2022-10-06T07:16:07.596Z,1.77
2022-10-06T07:21:29.162Z,2.20
2022-10-06T07:26:33.346Z,1.70
2022-10-06T07:31:36.866Z,1.80
2022-10-06T07:36:39.728Z,2.10
2022-10-06T07:41:43.884Z,1.67
2022-10-06T07:46:46.888Z,2.03
2022-10-06T07:51:50.484Z,2.10
2022-10-06T07:56:54.943Z,2.15
2022-10-06T08:01:58.253Z,2.00
2022-10-06T08:07:01.329Z,2.20
2022-10-06T08:12:26.102Z,2.20
2022-10-06T08:17:29.143Z,2.20
2022-10-06T08:22:32.063Z,2.25
2022-10-06T08:27:36.854Z,2.40
2022-10-06T08:32:42.724Z,2.15
2022-10-06T08:37:48.304Z,2.60
2022-10-06T08:42:54.566Z,2.17
2022-10-06T08:48:01.105Z,2.40
2022-10-06T08:53:08.922Z,2.78
2022-10-06T08:58:30.259Z,2.45
2022-10-06T09:03:35.383Z,2.47
2022-10-06T09:08:42.271Z,2.72
2022-10-06T09:13:47.318Z,2.70
2022-10-06T09:19:10.636Z,2.22
2022-10-06T09:24:14.940Z,2.70
2022-10-06T09:29:17.735Z,2.47
2022-10-06T09:34:25.621Z,2.80
2022-10-06T09:39:32.793Z,2.80
2022-10-06T09:44:44.718Z,2.95
2022-10-06T09:50:03.791Z,2.90
2022-10-06T09:55:12.397Z,2.83
2022-10-06T10:00:27.715Z,2.60
2022-10-06T10:05:33.632Z,3.25
2022-10-06T10:10:36.937Z,3.00
2022-10-06T10:15:52.414Z,3.00
2022-10-06T10:20:58.922Z,3.42
2022-10-06T10:26:19.380Z,3.42
2022-10-06T10:31:25.633Z,3.42
2022-10-06T10:36:33.368Z,2.67
2022-10-06T10:41:42.370Z,3.25
2022-10-06T10:46:47.822Z,3.60
2022-10-06T10:51:55.776Z,2.42
2022-10-06T10:56:59.577Z,3.00
2022-10-06T11:02:06.161Z,2.53
2022-10-06T11:07:15.075Z,2.90
2022-10-06T11:12:28.301Z,3.15
2022-10-06T11:17:44.144Z,4.07
2022-10-06T11:22:52.735Z,2.95
2022-10-06T11:28:00.086Z,4.03
2022-10-06T11:33:08.389Z,2.65
2022-10-06T11:38:17.081Z,2.35
2022-10-06T11:43:24.795Z,2.80
2022-10-06T11:48:29.543Z,2.60
2022-10-06T11:53:41.335Z,3.92
2022-10-06T11:58:58.897Z,2.30
2022-10-06T12:04:06.701Z,2.90
2022-10-06T12:09:24.354Z,2.90
2022-10-06T12:20:00.864Z,2.45
2022-10-06T12:25:05.783Z,2.30
2022-10-06T12:30:19.254Z,2.47
2022-10-06T12:35:24.990Z,2.42
2022-10-06T12:40:47.920Z,3.63
2022-10-06T12:45:56.517Z,2.55
2022-10-06T12:51:04.167Z,2.53
2022-10-06T12:56:15.016Z,3.25
2022-10-06T13:01:19.685Z,2.80
2022-10-06T13:06:23.410Z,2.75
2022-10-06T13:11:27.313Z,2.63
2022-10-06T13:16:32.814Z,2.53
2022-10-06T13:21:36.110Z,2.70
2022-10-06T13:26:39.264Z,2.70
2022-10-06T13:31:51.772Z,2.60
2022-10-06T13:36:56.335Z,2.78
2022-10-06T13:42:00.637Z,2.60
2022-10-06T13:47:06.036Z,2.45
2022-10-06T13:52:16.441Z,3.55
2022-10-06T13:57:35.534Z,2.50
2022-10-06T14:02:39.773Z,2.28
2022-10-06T14:07:44.249Z,3.42
2022-10-06T14:12:47.668Z,2.80
2022-10-06T14:17:55.887Z,3.10
2022-10-06T14:22:58.705Z,2.70
2022-10-06T14:28:01.373Z,2.90
2022-10-06T14:33:05.644Z,2.38
2022-10-06T14:38:08.465Z,2.50
2022-10-06T14:43:11.232Z,2.40
2022-10-06T14:48:16.389Z,2.50
2022-10-06T14:53:19.412Z,2.60
2022-10-06T14:58:24.306Z,2.25
2022-10-06T15:03:28.439Z,2.60
2022-10-06T15:08:33.151Z,2.70
2022-10-06T15:13:37.024Z,2.30
2022-10-06T15:18:42.893Z,2.28
2022-10-06T15:23:46.158Z,2.22
2022-10-06T15:29:03.950Z,2.60
2022-10-06T15:34:08.860Z,2.55
2022-10-06T15:39:13.100Z,2.50
2022-10-06T15:44:15.929Z,2.10
2022-10-06T15:49:20.972Z,2.38
2022-10-06T15:54:25.491Z,2.47
2022-10-06T15:59:32.571Z,2.70
2022-10-06T16:04:48.814Z,2.70
2022-10-06T16:09:52.505Z,2.42
2022-10-06T16:14:55.382Z,2.90
2022-10-06T16:19:59.558Z,2.63
2022-10-06T16:25:02.458Z,3.00
2022-10-06T16:30:05.512Z,2.80
2022-10-06T16:35:12.588Z,2.90
2022-10-06T16:40:18.359Z,3.30
2022-10-06T16:45:21.646Z,3.83
2022-10-06T16:50:26.223Z,2.97
2022-10-06T16:55:29.181Z,3.38
2022-10-06T17:00:35.423Z,3.47
2022-10-06T17:05:39.709Z,4.78
2022-10-06T17:10:42.364Z,3.50
2022-10-06T17:20:55.333Z,3.85
2022-10-06T17:26:02.205Z,3.38
2022-10-06T17:31:05.325Z,3.63
2022-10-06T17:36:10.868Z,3.72
2022-10-06T17:41:14.823Z,4.13
2022-10-06T17:46:20.090Z,3.90
2022-10-06T17:51:28.510Z,3.65
2022-10-06T17:56:34.896Z,3.90
2022-10-06T18:01:37.726Z,4.65
2022-10-06T18:06:42.421Z,4.90
2022-10-06T18:11:48.255Z,4.28
2022-10-06T18:16:56.386Z,4.72
2022-10-06T18:22:01.898Z,4.57
2022-10-06T18:27:06.280Z,9.73
2022-10-06T18:33:37.235Z,5.28
2022-10-06T18:37:34.894Z,5.07
2022-10-06T18:42:37.738Z,6.13
2022-10-06T18:47:57.730Z,8.37
2022-10-06T18:53:04.303Z,8.57
2022-10-06T18:58:07.280Z,5.72
2022-10-06T19:03:18.145Z,5.78
2022-10-06T19:08:22.313Z,5.57
2022-10-06T19:13:28.468Z,7.03
2022-10-06T19:18:34.133Z,5.93
2022-10-06T19:23:40.103Z,5.68
2022-10-06T19:28:43.078Z,5.50
2022-10-06T19:33:46.310Z,5.03
2022-10-06T19:38:50.459Z,5.10
2022-10-06T19:43:53.696Z,5.45
2022-10-06T19:48:58.129Z,5.30
2022-10-06T19:54:02.701Z,6.50
2022-10-06T19:59:05.529Z,5.97
2022-10-06T20:04:08.607Z,6.07
2022-10-06T20:09:13.890Z,7.35
2022-10-06T20:14:20.814Z,7.68
2022-10-06T20:19:25.460Z,6.78
2022-10-06T20:24:31.856Z,6.50
2022-10-06T20:29:34.726Z,7.57
2022-10-06T20:34:37.620Z,7.30
2022-10-06T20:39:59.602Z,9.07
2022-10-06T20:45:02.245Z,6.85
2022-10-06T20:50:05.264Z,8.95
2022-10-06T20:55:09.751Z,7.10
2022-10-06T21:00:14.350Z,6.10
2022-10-06T21:05:17.237Z,6.72
2022-10-06T21:10:23.065Z,6.38
2022-10-06T21:15:25.817Z,6.60
2022-10-06T21:20:28.611Z,6.07
2022-10-06T21:25:39.982Z,7.05
2022-10-06T21:30:45.944Z,5.90
2022-10-06T21:35:48.939Z,6.47
2022-10-06T21:40:53.502Z,5.57
2022-10-06T21:46:17.117Z,5.85
2022-10-06T21:51:19.598Z,5.70
2022-10-06T21:56:23.831Z,5.70
2022-10-06T22:01:27.423Z,5.88
2022-10-06T22:06:30.939Z,5.47
2022-10-06T22:11:36.050Z,6.13
2022-10-06T22:16:41.380Z,6.90
2022-10-06T22:21:45.290Z,6.38
2022-10-06T22:26:49.861Z,8.00
2022-10-06T22:31:52.755Z,7.45
2022-10-06T22:36:55.435Z,5.67
2022-10-06T22:42:08.291Z,5.38
2022-10-06T22:47:11.078Z,4.55
2022-10-06T22:52:13.698Z,7.03
2022-10-06T22:57:17.695Z,4.55
2022-10-06T23:02:20.488Z,4.15
2022-10-06T23:07:24.191Z,3.78
2022-10-06T23:12:28.259Z,3.80
2022-10-06T23:17:31.051Z,3.72
2022-10-06T23:22:34.114Z,3.57
2022-10-06T23:27:38.451Z,3.53
2022-10-06T23:32:42.042Z,3.45
2022-10-06T23:37:45.301Z,3.53
2022-10-06T23:42:49.933Z,4.75
2022-10-06T23:47:52.663Z,5.05
2022-10-06T23:52:55.255Z,5.53
2022-10-06T23:57:59.203Z,4.43
